Current Conditions
Rain
Conditions



Pressure
1008.92 (hPa) - 29.79 (inHG)
Visibility

6.0 (km) - 3.7 (miles)
Temperature
26  °C
Temperature
26  °C
Dewpoint
100  %
 Humidity
Wind Speed
10  km/h
5  kts
6  mph
2.7  m/s
Wind Direction
N
45°
E
90°
135°
S
180°
225°
W
270°
315°
 280°

Due West
Airport Data
WSSL
Seletar Airport
Metar :WSSL 161015Z 28005KT 220V330 6000 RA FEW012 FEW015TCU BKN150 26/26 Q1009 RETS
Mon 16th May 18:15 pm
Raw Metar Info
Raw METAR is the most common format in the world for the transmission of observational weather data. It is highly standardized through the International Civil Aviation Organization (ICAO), which allows it to be understood throughout most of the world.
API Info
Data Provided by
https://www.checkwx.com/weather/WSSL

Aviation Weather providing METAR, TAF, AIRMET, SIGMET and OUTLOOK Weather Reports
© Info
CSS/SVG/PHP scripts were developed by weather34.com for use in the weather34 template © 2015-2022

Guide Info provided by Metar-Wikipedia